Time;durP1;ratioP1;P1;durP2;ratioP2;P2;SDS_P1;SDS_P2;PMS_P1;PMS_P2;Temp;Humidity;BMP_temperature;BMP_pressure;BME280_temperature;BME280_humidity;BME280_pressure;Samples;Min_cycle;Max_cycle;Signal;HPM_P1;HPM_P2
2022/03/26 00:02:21;;;;;;;21.33;11.23;;;;;;;7.18;54.89;100748.44;5051601;28;20525;-37
2022/03/26 00:04:47;;;;;;;19.70;10.82;;;;;;;7.35;54.74;100738.78;5051201;28;20033;-37
2022/03/26 00:07:12;;;;;;;25.15;11.35;;;;;;;7.11;54.96;100736.00;5051195;28;20396;-37
2022/03/26 00:09:38;;;;;;;20.90;10.85;;;;;;;7.16;54.90;100739.81;5050820;28;20561;-37
2022/03/26 00:12:03;;;;;;;21.05;11.30;;;;;;;7.22;54.22;100733.06;5051344;28;20031;-37
2022/03/26 00:14:29;;;;;;;26.52;11.20;;;;;;;7.11;54.99;100728.03;5051160;28;20043;-37
2022/03/26 00:16:54;;;;;;;22.15;12.43;;;;;;;7.10;55.30;100743.09;5051257;28;20455;-37
2022/03/26 00:19:20;;;;;;;24.58;11.43;;;;;;;7.09;55.83;100737.97;5051199;28;20029;-37
2022/03/26 00:21:48;;;;;;;22.48;11.63;;;;;;;7.07;56.29;100739.94;5050942;28;20032;-37
2022/03/26 00:24:14;;;;;;;26.73;12.13;;;;;;;6.97;56.19;100735.56;5051028;28;20461;-37
2022/03/26 00:26:39;;;;;;;26.65;11.57;;;;;;;6.82;57.23;100740.59;5051011;28;20025;-37
2022/03/26 00:29:05;;;;;;;22.75;11.82;;;;;;;6.81;56.72;100736.28;5050867;28;20044;-37
2022/03/26 00:31:33;;;;;;;24.95;12.18;;;;;;;6.74;57.33;100739.69;5050911;28;20036;-37
2022/03/26 00:33:58;;;;;;;25.05;12.10;;;;;;;6.71;57.26;100737.38;5050907;28;20043;-37
2022/03/26 00:36:24;;;;;;;25.88;12.20;;;;;;;6.42;58.51;100731.34;5050809;28;20033;-37
2022/03/26 00:38:50;;;;;;;23.60;13.15;;;;;;;6.37;59.25;100738.09;5050377;28;20031;-36
2022/03/26 00:41:16;;;;;;;24.00;12.57;;;;;;;6.40;59.15;100727.22;5050927;28;20102;-37
2022/03/26 00:43:41;;;;;;;23.30;12.30;;;;;;;6.38;59.04;100739.75;5050892;28;20032;-37
2022/03/26 00:46:07;;;;;;;21.55;12.27;;;;;;;6.37;58.92;100738.09;5050692;28;20024;-37
2022/03/26 00:48:32;;;;;;;21.40;12.18;;;;;;;6.52;58.63;100738.38;5050774;28;20449;-36
2022/03/26 00:50:58;;;;;;;22.48;12.80;;;;;;;6.30;59.08;100732.56;5050851;28;20033;-36
2022/03/26 00:53:24;;;;;;;23.80;13.35;;;;;;;6.48;58.97;100747.59;5051204;28;20083;-36
2022/03/26 00:55:49;;;;;;;26.33;12.98;;;;;;;6.25;59.47;100746.25;5051177;28;20033;-36
2022/03/26 00:58:14;;;;;;;22.20;12.52;;;;;;;6.34;59.55;100746.31;5051193;28;20032;-36
2022/03/26 01:00:42;;;;;;;28.35;12.45;;;;;;;6.10;60.12;100760.13;5051193;28;20463;-37
2022/03/26 01:03:09;;;;;;;21.25;12.25;;;;;;;5.99;60.65;100758.53;5051149;28;20024;-36
2022/03/26 01:05:36;;;;;;;23.23;12.77;;;;;;;5.93;61.28;100752.00;5051088;28;20110;-36
2022/03/26 01:08:02;;;;;;;24.10;12.23;;;;;;;6.16;60.55;100755.06;5051382;28;20032;-36
2022/03/26 01:10:28;;;;;;;27.63;12.40;;;;;;;6.11;60.78;100760.00;5051151;28;20047;-38
2022/03/26 01:12:53;;;;;;;22.58;11.98;;;;;;;6.26;59.76;100771.72;5050821;28;20104;-36
2022/03/26 01:15:19;;;;;;;23.42;12.65;;;;;;;6.25;59.87;100761.28;5051251;28;20084;-36
2022/03/26 01:17:45;;;;;;;24.08;12.85;;;;;;;6.18;60.16;100771.59;5050958;28;20029;-37
2022/03/26 01:20:12;;;;;;;24.33;12.80;;;;;;;6.20;60.57;100767.00;5051050;28;20063;-36
2022/03/26 01:22:38;;;;;;;27.02;12.70;;;;;;;6.21;60.36;100773.97;5053702;28;20040;-37
2022/03/26 01:25:05;;;;;;;23.63;12.52;;;;;;;6.02;61.03;100772.28;5055065;28;20033;-37
2022/03/26 01:27:31;;;;;;;20.98;12.23;;;;;;;5.83;61.20;100759.16;5054889;28;20041;-37
2022/03/26 01:29:57;;;;;;;29.80;12.82;;;;;;;5.73;61.95;100769.78;5054526;28;20090;-37
2022/03/26 01:32:23;;;;;;;24.05;13.30;;;;;;;5.86;61.48;100767.63;5055093;28;20033;-37
2022/03/26 01:34:49;;;;;;;26.27;14.05;;;;;;;5.76;61.77;100771.28;5055127;28;20031;-37
2022/03/26 01:37:16;;;;;;;25.45;13.70;;;;;;;5.96;60.92;100766.75;5054865;28;20033;-37
2022/03/26 01:39:42;;;;;;;27.00;13.50;;;;;;;6.03;61.13;100773.09;5054334;28;20384;-37
2022/03/26 01:42:08;;;;;;;24.38;13.52;;;;;;;5.80;61.73;100784.03;5054568;28;20025;-37
2022/03/26 01:44:35;;;;;;;23.27;13.73;;;;;;;5.74;62.19;100782.00;5054521;28;20029;-37
2022/03/26 01:47:00;;;;;;;24.08;13.70;;;;;;;5.72;61.71;100786.59;5054381;28;20032;-37
2022/03/26 01:49:27;;;;;;;25.73;14.85;;;;;;;5.90;61.10;100788.44;5054454;28;20040;-37
2022/03/26 01:51:53;;;;;;;29.08;14.73;;;;;;;5.70;61.77;100787.72;5054581;28;20028;-37
2022/03/26 01:54:19;;;;;;;22.65;13.48;;;;;;;5.79;61.49;100787.66;5054335;28;20029;-37
2022/03/26 01:56:45;;;;;;;25.92;13.75;;;;;;;5.74;61.76;100783.81;5054225;28;20076;-37
2022/03/26 01:59:11;;;;;;;41.92;14.48;;;;;;;5.88;61.62;100792.09;5054186;28;20499;-36
2022/03/26 02:01:38;;;;;;;25.40;13.77;;;;;;;5.53;62.33;100790.16;5054463;28;20017;-37
2022/03/26 02:04:05;;;;;;;29.65;14.55;;;;;;;5.55;62.15;100788.19;5054127;28;20048;-37
2022/03/26 02:06:33;;;;;;;26.67;14.98;;;;;;;5.62;62.36;100791.09;5053922;28;20045;-37
2022/03/26 02:09:03;;;;;;;23.55;14.30;;;;;;;5.54;62.55;100797.09;5054192;28;20021;-36
2022/03/26 02:11:36;;;;;;;26.67;14.23;;;;;;;5.48;62.53;100801.16;5053924;28;20025;-36
2022/03/26 02:14:02;;;;;;;25.83;13.45;;;;;;;5.72;62.19;100799.78;5053562;28;20055;-35
2022/03/26 02:16:29;;;;;;;25.45;14.05;;;;;;;5.66;62.00;100797.75;5053736;28;20056;-36
2022/03/26 02:18:55;;;;;;;26.40;14.05;;;;;;;5.57;62.50;100798.59;5053795;28;20020;-36
2022/03/26 02:21:22;;;;;;;26.58;14.60;;;;;;;5.57;62.48;100806.53;5053630;28;20377;-35
2022/03/26 02:23:49;;;;;;;24.05;13.32;;;;;;;5.64;61.78;100799.69;5053706;28;20055;-37
2022/03/26 02:26:19;;;;;;;28.63;13.77;;;;;;;5.74;62.07;100804.94;5053866;28;20033;-36
2022/03/26 02:28:45;;;;;;;28.38;13.50;;;;;;;5.52;62.25;100798.19;5053702;28;20405;-36
2022/03/26 02:31:12;;;;;;;27.60;13.18;;;;;;;5.56;62.32;100803.06;5053510;28;20449;-36
2022/03/26 02:33:39;;;;;;;22.67;13.40;;;;;;;5.62;62.58;100801.66;5054065;28;20025;-36
2022/03/26 02:36:06;;;;;;;24.55;13.52;;;;;;;5.57;62.48;100810.00;5053553;28;20082;-37
2022/03/26 02:38:32;;;;;;;27.10;13.57;;;;;;;5.60;62.16;100809.72;5053802;28;20111;-37
2022/03/26 02:40:58;;;;;;;23.38;13.63;;;;;;;5.63;62.62;100814.69;5053397;28;20418;-37
2022/03/26 02:43:23;;;;;;;28.83;13.32;;;;;;;5.52;62.04;100809.63;5054004;28;20037;-37
2022/03/26 02:45:49;;;;;;;25.38;13.93;;;;;;;5.44;62.74;100814.75;5053209;28;20037;-37
2022/03/26 02:48:14;;;;;;;25.92;14.25;;;;;;;5.48;62.38;100810.84;5053465;28;20025;-36
2022/03/26 02:50:44;;;;;;;23.90;13.77;;;;;;;5.44;62.92;100823.50;5053261;28;20036;-36
2022/03/26 02:53:10;;;;;;;27.67;13.10;;;;;;;5.22;63.05;100814.13;5053346;28;20205;-36
2022/03/26 02:55:36;;;;;;;26.80;13.80;;;;;;;5.37;63.06;100824.22;5053641;28;20531;-36
2022/03/26 02:58:02;;;;;;;26.55;13.13;;;;;;;5.29;63.17;100817.88;5053322;28;20029;-37
2022/03/26 03:00:28;;;;;;;25.65;14.00;;;;;;;5.36;63.47;100822.59;5053280;28;20077;-37
2022/03/26 03:02:54;;;;;;;29.20;13.82;;;;;;;5.47;62.13;100820.59;5053291;28;20043;-37
2022/03/26 03:05:19;;;;;;;27.13;14.23;;;;;;;5.59;62.06;100823.06;5052457;28;20041;-37
2022/03/26 03:07:45;;;;;;;26.80;14.65;;;;;;;5.44;62.42;100828.78;5051954;28;20039;-37
2022/03/26 03:10:15;;;;;;;21.55;12.68;;;;;;;5.44;62.16;100826.16;5053091;28;20033;-37
2022/03/26 03:12:44;;;;;;;23.40;13.57;;;;;;;5.27;63.29;100826.91;5052843;28;20033;-37
2022/03/26 03:15:11;;;;;;;24.03;12.93;;;;;;;5.30;62.82;100823.97;5052675;28;20039;-37
2022/03/26 03:17:37;;;;;;;27.77;14.25;;;;;;;5.31;62.73;100822.16;5052756;28;20278;-37
2022/03/26 03:20:04;;;;;;;25.52;13.75;;;;;;;5.27;63.14;100818.97;5053096;28;20032;-37
2022/03/26 03:22:29;;;;;;;26.40;13.85;;;;;;;5.25;63.17;100827.06;5052698;28;20033;-37
2022/03/26 03:24:54;;;;;;;25.30;14.13;;;;;;;5.20;63.69;100820.53;5053226;28;20431;-37
2022/03/26 03:27:21;;;;;;;25.70;13.82;;;;;;;5.17;63.19;100820.81;5052814;28;20032;-37
2022/03/26 03:29:46;;;;;;;27.52;13.77;;;;;;;5.18;62.97;100804.00;5052438;28;20060;-37
2022/03/26 03:32:12;;;;;;;26.52;14.13;;;;;;;5.07;63.58;100821.66;5052847;28;20100;-37
2022/03/26 03:34:37;;;;;;;26.10;13.52;;;;;;;4.95;63.74;100816.66;5052919;28;20041;-37
2022/03/26 03:37:04;;;;;;;25.52;14.27;;;;;;;4.85;64.81;100814.88;5052158;28;20040;-37
2022/03/26 03:39:30;;;;;;;26.17;14.25;;;;;;;4.67;64.93;100822.66;5051088;28;20124;-37
2022/03/26 03:41:55;;;;;;;29.15;14.05;;;;;;;5.07;63.62;100824.31;5052810;28;20124;-37
2022/03/26 03:44:21;;;;;;;25.15;13.63;;;;;;;4.97;63.60;100817.38;5051858;28;20380;-37
2022/03/26 03:46:46;;;;;;;28.52;14.27;;;;;;;4.99;63.37;100824.19;5052100;28;20452;-37
2022/03/26 03:49:11;;;;;;;28.85;14.40;;;;;;;4.60;64.25;100826.00;5052426;28;20035;-37
2022/03/26 03:51:37;;;;;;;26.60;14.05;;;;;;;4.52;65.28;100826.69;5052504;28;20025;-37
2022/03/26 03:54:02;;;;;;;31.48;13.52;;;;;;;4.50;65.51;100828.63;5051916;28;20052;-37
2022/03/26 03:56:28;;;;;;;30.25;13.35;;;;;;;4.58;65.25;100826.13;5052291;28;20449;-37
2022/03/26 03:58:53;;;;;;;26.23;13.55;;;;;;;4.59;65.14;100827.81;5052373;28;20104;-37
2022/03/26 04:01:19;;;;;;;26.88;13.85;;;;;;;4.62;64.49;100832.78;5052247;28;20358;-41
2022/03/26 04:03:44;;;;;;;25.92;13.98;;;;;;;4.59;64.95;100833.06;5052511;28;20503;-36
2022/03/26 04:06:10;;;;;;;25.80;14.02;;;;;;;4.81;64.27;100831.94;5051917;28;20055;-36
2022/03/26 04:08:35;;;;;;;28.02;13.82;;;;;;;4.81;64.38;100831.13;5052012;28;20029;-36
2022/03/26 04:11:01;;;;;;;24.33;14.70;;;;;;;5.11;63.58;100845.97;5052099;28;20032;-37
2022/03/26 04:13:26;;;;;;;32.53;16.85;;;;;;;4.98;64.26;100838.34;5052120;28;20102;-36
2022/03/26 04:15:52;;;;;;;32.50;15.98;;;;;;;4.68;64.75;100836.66;5051879;28;20021;-36
2022/03/26 04:18:17;;;;;;;30.42;15.40;;;;;;;4.62;65.62;100839.88;5051910;28;20517;-37
2022/03/26 04:20:42;;;;;;;32.85;14.70;;;;;;;4.70;64.65;100842.63;5051887;28;20098;-37
2022/03/26 04:23:08;;;;;;;34.40;15.27;;;;;;;4.28;66.02;100841.09;5051547;28;20404;-37
2022/03/26 04:25:33;;;;;;;29.98;15.52;;;;;;;4.30;66.12;100841.78;5051392;28;20025;-37
2022/03/26 04:27:59;;;;;;;30.92;15.52;;;;;;;4.18;66.55;100850.75;5051561;28;20031;-37
2022/03/26 04:30:24;;;;;;;28.38;15.90;;;;;;;4.11;66.86;100846.97;5051069;28;20064;-37
2022/03/26 04:32:50;;;;;;;34.38;16.38;;;;;;;4.12;66.82;100848.66;5051196;28;20057;-37
2022/03/26 04:35:16;;;;;;;36.80;18.33;;;;;;;4.52;67.53;100853.03;5051502;28;20534;-37
2022/03/26 04:37:41;;;;;;;42.00;22.80;;;;;;;4.93;69.02;100847.63;5051493;28;20048;-37
2022/03/26 04:40:11;;;;;;;48.72;28.92;;;;;;;5.26;67.30;100857.75;5051560;28;20021;-37
2022/03/26 04:42:37;;;;;;;;;;;;;;;5.38;63.88;100861.06;5052015;28;20029;-37
2022/03/26 04:45:03;;;;;;;40.72;17.70;;;;;;;5.25;62.79;100864.00;5051419;28;19974;-37
2022/03/26 04:47:28;;;;;;;36.10;18.42;;;;;;;5.20;63.15;100862.78;5050873;28;20025;-51
2022/03/26 04:49:54;;;;;;;34.88;18.58;;;;;;;4.95;63.51;100877.34;5051466;28;20025;-48
2022/03/26 04:52:19;;;;;;;33.00;17.98;;;;;;;5.16;63.14;100878.06;5051373;28;20409;-48
2022/03/26 04:54:46;;;;;;;35.05;16.73;;;;;;;5.05;63.40;100891.38;5051135;28;20032;-48
2022/03/26 04:57:13;;;;;;;36.30;17.25;;;;;;;5.21;62.53;100891.63;5051265;28;20025;-48
2022/03/26 04:59:39;;;;;;;32.28;16.75;;;;;;;5.30;62.04;100897.88;5051098;28;20025;-49
2022/03/26 05:02:04;;;;;;;32.22;15.15;;;;;;;5.12;62.88;100891.66;5051268;28;20083;-50
2022/03/26 05:04:30;;;;;;;28.20;15.32;;;;;;;5.81;59.95;100896.66;5050747;28;20106;-48
2022/03/26 05:06:56;;;;;;;30.90;15.18;;;;;;;5.85;58.12;100903.31;5050628;28;20186;-48
2022/03/26 05:09:21;;;;;;;36.40;15.57;;;;;;;5.56;59.05;100897.28;5051000;28;20491;-48
2022/03/26 05:11:46;;;;;;;29.80;14.70;;;;;;;5.69;59.36;100900.44;5050923;28;20074;-48
2022/03/26 05:14:13;;;;;;;31.58;16.27;;;;;;;5.24;60.67;100901.09;5050799;28;20021;-49
2022/03/26 05:16:38;;;;;;;35.60;18.80;;;;;;;5.30;60.97;100905.81;5051212;28;20079;-48
2022/03/26 05:19:04;;;;;;;37.55;20.80;;;;;;;5.35;60.91;100910.66;5050879;28;20417;-48
2022/03/26 05:21:29;;;;;;;39.28;21.58;;;;;;;6.07;59.69;100912.75;5050760;28;20021;-49
2022/03/26 05:23:55;;;;;;;35.65;19.88;;;;;;;6.53;57.68;100912.78;5050988;28;20469;-48
2022/03/26 05:26:22;;;;;;;34.00;19.30;;;;;;;6.31;57.96;100918.47;5050975;28;20496;-50
2022/03/26 05:28:48;;;;;;;34.13;18.00;;;;;;;6.12;58.62;100919.41;5051203;28;20111;-48
2022/03/26 05:31:14;;;;;;;36.15;19.42;;;;;;;6.46;58.19;100924.94;5049840;28;20029;-49
2022/03/26 05:33:40;;;;;;;35.00;19.33;;;;;;;6.57;57.45;100924.72;5051238;28;20391;-48
2022/03/26 05:36:06;;;;;;;31.13;18.70;;;;;;;7.61;56.18;100918.84;5050734;28;20024;-48
2022/03/26 05:38:32;;;;;;;33.15;18.25;;;;;;;8.07;52.92;100921.25;5051200;28;20395;-48
2022/03/26 05:40:58;;;;;;;32.75;17.70;;;;;;;8.47;51.88;100919.78;5050704;28;20435;-49
2022/03/26 05:43:24;;;;;;;33.80;17.10;;;;;;;8.22;52.23;100924.16;5050693;28;20516;-52
2022/03/26 05:45:51;;;;;;;29.73;16.75;;;;;;;7.58;53.76;100910.41;5050845;28;20021;-50
2022/03/26 05:48:18;;;;;;;29.23;15.80;;;;;;;8.12;53.00;100928.75;5050781;28;20081;-51
2022/03/26 05:50:44;;;;;;;28.88;16.13;;;;;;;8.34;52.73;100930.00;5050358;28;20028;-50
2022/03/26 05:53:11;;;;;;;26.83;15.38;;;;;;;8.79;52.65;100934.97;5050389;28;20029;-50
2022/03/26 05:55:36;;;;;;;31.17;16.63;;;;;;;8.98;50.34;100925.88;5050404;28;20524;-48
2022/03/26 05:58:02;;;;;;;30.17;15.13;;;;;;;9.23;49.77;100938.38;5049573;28;20033;-50
2022/03/26 06:00:28;;;;;;;27.92;16.13;;;;;;;9.96;49.13;100937.47;5049483;28;20144;-49
2022/03/26 06:02:53;;;;;;;30.10;15.45;;;;;;;10.55;46.56;100937.09;5049212;28;20476;-50
2022/03/26 06:05:19;;;;;;;27.45;15.43;;;;;;;10.41;46.39;100943.16;5049215;28;20045;-51
2022/03/26 06:07:44;;;;;;;29.40;15.60;;;;;;;10.65;46.10;100947.53;5050684;28;20600;-51
2022/03/26 06:10:10;;;;;;;27.33;15.32;;;;;;;10.43;46.58;100944.63;5052192;28;20086;-51
2022/03/26 06:12:35;;;;;;;28.35;15.68;;;;;;;10.53;46.46;100947.94;5044698;28;20040;-51
2022/03/26 06:15:03;;;;;;;27.80;15.80;;;;;;;10.64;46.27;100951.19;5033243;28;20497;-51
2022/03/26 06:17:28;;;;;;;71.15;36.47;;;;;;;10.60;45.86;100956.03;5046512;28;20103;-49
2022/03/26 06:19:54;;;;;;;41.40;22.13;;;;;;;10.80;46.09;100952.94;5052924;28;20674;-48
2022/03/26 06:22:19;;;;;;;32.30;18.60;;;;;;;10.83;45.54;100956.06;5052421;28;20489;-49
2022/03/26 06:24:44;;;;;;;33.33;20.50;;;;;;;10.93;45.87;100954.03;5052887;28;20526;-50
2022/03/26 06:27:10;;;;;;;44.00;22.45;;;;;;;11.24;45.94;100957.66;5045508;28;20021;-49
2022/03/26 06:29:36;;;;;;;42.90;24.42;;;;;;;11.27;44.62;100963.47;5037620;28;20160;-52
2022/03/26 06:32:03;;;;;;;46.55;24.10;;;;;;;11.79;44.35;100956.50;5032721;28;20071;-50
2022/03/26 06:34:28;;;;;;;44.03;23.35;;;;;;;11.65;43.89;100960.81;5033253;28;20159;-51
2022/03/26 06:36:54;;;;;;;42.47;24.67;;;;;;;12.05;43.17;100963.25;5032579;28;20059;-52
2022/03/26 06:39:20;;;;;;;30.05;18.42;;;;;;;12.11;42.54;100960.69;5032743;28;20022;-51
2022/03/26 06:41:45;;;;;;;33.17;18.55;;;;;;;12.30;43.15;100958.50;5031965;28;20021;-48
2022/03/26 06:44:12;;;;;;;30.27;17.52;;;;;;;12.30;42.64;100966.50;5043704;28;20017;-50
2022/03/26 06:46:38;;;;;;;30.70;16.00;;;;;;;12.42;42.86;100967.69;5052664;28;20114;-49
2022/03/26 06:49:06;;;;;;;28.13;16.15;;;;;;;13.13;40.89;100966.22;5052136;28;20013;-49
2022/03/26 06:51:34;;;;;;;29.85;16.02;;;;;;;12.76;41.66;100968.91;5051986;28;20471;-49
2022/03/26 06:53:59;;;;;;;25.42;15.60;;;;;;;13.13;41.42;100972.38;5052427;28;20035;-48
2022/03/26 06:56:25;;;;;;;28.15;14.75;;;;;;;13.28;40.48;100978.50;5052004;28;20021;-49
2022/03/26 06:58:51;;;;;;;23.65;14.20;;;;;;;13.64;40.85;100974.13;5052254;28;20021;-49
2022/03/26 07:01:17;;;;;;;23.92;14.50;;;;;;;13.94;39.66;100969.41;5052043;28;20074;-50
2022/03/26 07:03:42;;;;;;;29.85;15.65;;;;;;;14.48;38.50;100968.66;5052360;28;20024;-50
2022/03/26 07:06:08;;;;;;;24.63;14.07;;;;;;;14.31;37.44;100966.53;5051281;28;20045;-50
2022/03/26 07:08:33;;;;;;;24.50;14.05;;;;;;;13.94;38.95;100972.06;5051019;28;20040;-53
2022/03/26 07:10:59;;;;;;;25.42;14.70;;;;;;;14.26;38.40;100967.94;5050632;28;20150;-40
2022/03/26 07:13:25;;;;;;;25.70;15.23;;;;;;;14.16;38.81;100969.31;5051204;28;20075;-38
2022/03/26 07:15:51;;;;;;;20.92;14.05;;;;;;;14.09;38.06;100974.66;5051346;28;20055;-38
2022/03/26 07:18:16;;;;;;;24.35;14.05;;;;;;;14.39;38.29;100983.25;5050947;28;20049;-52
2022/03/26 07:20:42;;;;;;;28.83;17.92;;;;;;;15.00;37.53;100979.81;5049628;28;20487;-52
2022/03/26 07:23:07;;;;;;;110.68;57.70;;;;;;;15.79;35.85;100980.09;5051250;28;20043;-51
2022/03/26 07:25:34;;;;;;;23.75;14.60;;;;;;;15.10;36.61;100981.25;5051652;28;20146;-50
2022/03/26 07:28:00;;;;;;;24.65;14.55;;;;;;;15.03;36.92;100971.34;5048976;28;20484;-49
2022/03/26 07:30:25;;;;;;;24.58;15.35;;;;;;;16.70;39.93;100981.09;5051646;28;20056;-51
2022/03/26 07:32:51;;;;;;;22.75;14.20;;;;;;;16.41;35.41;100975.19;5051222;28;20032;-49
2022/03/26 07:35:16;;;;;;;25.10;14.90;;;;;;;15.98;35.63;100979.25;5049984;28;20140;-53
2022/03/26 07:37:43;;;;;;;23.75;14.93;;;;;;;15.94;36.84;100979.88;5051491;28;20095;-50
2022/03/26 07:40:09;;;;;;;21.52;14.82;;;;;;;15.56;36.43;100975.94;5051711;28;20021;-52
2022/03/26 07:42:35;;;;;;;23.60;13.98;;;;;;;15.54;37.32;100986.06;5051616;28;20029;-37
2022/03/26 07:45:02;;;;;;;24.15;14.38;;;;;;;15.83;38.33;100992.06;5051666;28;20479;-37
2022/03/26 07:47:28;;;;;;;22.02;14.52;;;;;;;15.36;37.97;100989.34;5051038;28;20028;-49
2022/03/26 07:49:53;;;;;;;21.95;14.82;;;;;;;15.87;37.33;100982.56;5050632;28;20025;-52
2022/03/26 07:52:19;;;;;;;23.08;14.05;;;;;;;16.06;36.05;100986.25;5051519;28;20143;-50
2022/03/26 07:54:44;;;;;;;25.65;14.23;;;;;;;15.13;36.29;100986.22;5050766;28;20032;-50
2022/03/26 07:57:10;;;;;;;21.70;13.18;;;;;;;15.69;36.36;100985.88;5050831;28;20155;-51
2022/03/26 07:59:35;;;;;;;21.02;12.93;;;;;;;17.01;34.00;100972.28;5050665;28;20393;-49
2022/03/26 08:02:01;;;;;;;27.30;13.73;;;;;;;16.96;33.47;100986.38;5051011;28;20028;-49
2022/03/26 08:04:26;;;;;;;22.58;13.18;;;;;;;16.83;33.98;100975.69;5051416;28;20045;-48
2022/03/26 08:06:52;;;;;;;25.45;14.25;;;;;;;16.69;33.49;100974.06;5030932;28;20050;-49
2022/03/26 08:09:17;;;;;;;26.42;14.52;;;;;;;16.06;34.48;100969.31;5031047;28;20036;-49
2022/03/26 08:11:44;;;;;;;26.48;13.70;;;;;;;16.73;34.41;100967.22;5030928;28;20179;-52
2022/03/26 08:14:09;;;;;;;23.13;14.07;;;;;;;17.08;33.63;100956.94;5031128;28;20021;-50
2022/03/26 08:16:35;;;;;;;24.23;14.35;;;;;;;16.89;33.75;100955.19;5031292;28;20414;-50
2022/03/26 08:19:00;;;;;;;21.67;14.20;;;;;;;16.70;33.68;100960.44;5031006;28;20676;-49
2022/03/26 08:21:27;;;;;;;22.75;14.40;;;;;;;16.56;34.17;100964.19;5031310;28;20048;-50
2022/03/26 08:23:54;;;;;;;23.63;13.77;;;;;;;16.47;34.17;100954.72;5030819;28;20410;-49
2022/03/26 08:26:19;;;;;;;22.48;13.70;;;;;;;16.00;35.40;100961.06;5030787;28;20084;-49
2022/03/26 08:28:49;;;;;;;18.33;12.98;;;;;;;15.75;35.50;100958.22;5030914;28;20569;-51
2022/03/26 08:31:15;;;;;;;20.17;13.95;;;;;;;16.59;33.67;100953.03;5033847;28;20079;-49
2022/03/26 08:33:40;;;;;;;21.83;13.85;;;;;;;17.76;31.99;100942.72;5049917;28;20029;-52
2022/03/26 08:36:06;;;;;;;18.13;13.00;;;;;;;18.61;30.44;100943.88;5050125;28;20036;-52
2022/03/26 08:38:32;;;;;;;19.42;13.07;;;;;;;18.12;30.89;100938.44;5047345;28;20484;-51
2022/03/26 08:40:58;;;;;;;22.02;13.82;;;;;;;17.64;31.89;100936.41;5050604;28;20063;-50
2022/03/26 08:43:24;;;;;;;20.88;13.13;;;;;;;18.27;31.01;100935.38;5049351;28;20067;-51
2022/03/26 08:45:49;;;;;;;25.30;13.07;;;;;;;18.88;30.30;100938.13;5049690;28;20040;-51
2022/03/26 08:48:15;;;;;;;20.88;13.38;;;;;;;18.84;29.86;100932.38;5050127;28;20025;-51
2022/03/26 08:50:42;;;;;;;22.55;12.32;;;;;;;18.31;31.06;100933.03;5049066;28;20528;-52
2022/03/26 08:53:09;;;;;;;23.50;12.40;;;;;;;18.31;30.75;100930.34;5048120;28;20047;-50
2022/03/26 08:55:34;;;;;;;20.70;12.27;;;;;;;19.13;29.63;100925.31;5049364;28;20102;-53
2022/03/26 08:58:00;;;;;;;28.90;13.27;;;;;;;19.66;29.10;100930.88;5049334;28;20437;-51
2022/03/26 09:00:27;;;;;;;19.67;13.05;;;;;;;18.61;29.76;100918.78;5049099;28;20483;-51
2022/03/26 09:02:56;;;;;;;19.38;12.35;;;;;;;19.36;30.08;100917.47;5049480;28;20067;-51
2022/03/26 09:05:22;;;;;;;21.13;12.52;;;;;;;18.14;30.50;100917.50;5047171;28;20053;-50
2022/03/26 09:07:48;;;;;;;19.00;10.95;;;;;;;19.53;28.82;100913.88;5049720;28;20150;-49
2022/03/26 09:10:14;;;;;;;20.20;12.13;;;;;;;20.36;27.17;100902.97;5049402;28;20148;-49
2022/03/26 09:12:39;;;;;;;19.80;11.38;;;;;;;20.40;27.34;100897.91;5049171;28;20137;-51
2022/03/26 09:15:07;;;;;;;18.92;12.45;;;;;;;21.56;26.54;100897.47;5049822;28;20586;-52
2022/03/26 09:17:36;;;;;;;23.30;12.57;;;;;;;22.68;24.52;100893.75;5049861;28;20064;-51
2022/03/26 09:20:05;;;;;;;18.92;13.35;;;;;;;21.75;25.14;100895.31;5047037;28;20139;-49
2022/03/26 09:22:32;;;;;;;20.13;12.18;;;;;;;19.96;27.36;100886.75;5049774;28;20041;-49
2022/03/26 09:24:57;;;;;;;18.02;12.10;;;;;;;19.95;27.65;100882.38;5047387;28;20025;-53
2022/03/26 09:27:23;;;;;;;18.88;12.15;;;;;;;19.68;27.72;100888.25;5050006;28;20436;-53
2022/03/26 09:29:48;;;;;;;25.02;12.13;;;;;;;20.09;27.31;100879.19;5047681;28;20025;-52
2022/03/26 09:32:14;;;;;;;20.73;11.65;;;;;;;21.22;25.98;100877.72;5050079;28;20032;-52
2022/03/26 09:34:39;;;;;;;23.77;12.18;;;;;;;21.59;25.73;100875.34;5049758;28;20033;-53
2022/03/26 09:37:05;;;;;;;20.42;11.82;;;;;;;22.25;25.44;100867.22;5049721;28;20024;-49
2022/03/26 09:39:30;;;;;;;19.90;11.98;;;;;;;21.59;25.00;100858.25;5049967;28;20440;-49
2022/03/26 09:41:57;;;;;;;20.25;12.52;;;;;;;21.02;25.95;100867.41;5049155;28;20025;-53
2022/03/26 09:44:23;;;;;;;19.30;12.50;;;;;;;21.23;25.11;100869.34;5053189;28;20067;-52
2022/03/26 09:46:49;;;;;;;22.10;11.88;;;;;;;21.41;25.09;100859.31;5053587;28;20122;-49
2022/03/26 09:49:15;;;;;;;17.42;11.70;;;;;;;21.62;24.09;100863.97;5053756;28;20106;-49
2022/03/26 09:51:41;;;;;;;19.95;12.48;;;;;;;22.05;23.24;100856.97;5053592;28;20107;-49
2022/03/26 09:54:08;;;;;;;18.17;12.10;;;;;;;22.28;23.30;100852.38;5053569;28;20028;-50
2022/03/26 09:56:34;;;;;;;21.25;12.25;;;;;;;23.01;24.67;100844.63;5053399;28;20036;-47
2022/03/26 09:59:00;;;;;;;18.35;11.73;;;;;;;22.48;23.41;100845.50;5053474;28;20079;-48
2022/03/26 10:01:26;;;;;;;17.00;9.98;;;;;;;23.32;25.48;100844.06;5053876;28;20504;-51
2022/03/26 10:04:12;;;;;;;17.65;11.13;;;;;;;24.26;20.17;100836.91;5053584;28;20482;-48
2022/03/26 10:06:46;;;;;;;21.60;11.18;;;;;;;24.10;19.77;100835.22;5053797;28;20057;-49
2022/03/26 10:09:11;;;;;;;17.77;10.77;;;;;;;24.19;18.97;100839.06;5053633;28;20435;-49
2022/03/26 10:11:37;;;;;;;17.42;11.00;;;;;;;23.48;19.45;100829.50;5053926;28;20033;-48
2022/03/26 10:14:03;;;;;;;20.17;11.15;;;;;;;23.77;19.96;100827.19;5044542;28;20033;-50
2022/03/26 10:16:28;;;;;;;40.95;28.70;;;;;;;23.34;19.97;100814.75;5033840;28;20104;-50
2022/03/26 10:18:58;;;;;;;45.50;26.70;;;;;;;23.64;19.26;100818.72;5037395;28;20048;-37
2022/03/26 10:21:23;;;;;;;;;;;;;;;22.84;20.01;100816.81;5033586;28;20096;-37
2022/03/26 10:23:50;;;;;;;18.08;10.65;;;;;;;23.26;20.32;100818.75;5031630;28;20118;-36
2022/03/26 10:26:25;;;;;;;16.13;10.50;;;;;;;23.27;19.52;100806.03;5042114;28;20426;-36
2022/03/26 10:28:57;;;;;;;17.35;10.55;;;;;;;22.77;19.57;100802.63;5053634;28;20035;-37
2022/03/26 10:34:15;;;;;;;21.17;10.93;;;;;;;21.07;21.31;100797.91;5050499;28;20068;-37
2022/03/26 10:36:45;;;;;;;19.27;10.90;;;;;;;21.55;20.30;100790.25;5051193;28;20424;-37
2022/03/26 10:39:21;;;;;;;19.42;10.73;;;;;;;22.16;20.52;100787.44;5050811;28;20036;-37
2022/03/26 10:41:48;;;;;;;16.92;10.20;;;;;;;22.63;19.88;100784.09;5049833;28;20017;-37
2022/03/26 10:44:16;;;;;;;16.85;10.50;;;;;;;23.36;19.25;100766.41;5049747;28;20031;-37
2022/03/26 10:46:50;;;;;;;16.55;10.40;;;;;;;24.43;18.33;100773.25;5049322;28;20020;-37
2022/03/26 10:49:36;;;;;;;21.00;10.65;;;;;;;25.33;17.06;100770.78;5049537;28;20057;-37
2022/03/26 10:52:10;;;;;;;17.17;10.68;;;;;;;24.98;16.99;100768.94;5049586;28;20036;-38
2022/03/26 10:54:36;;;;;;;15.68;10.38;;;;;;;25.16;17.42;100762.09;5049624;28;20029;-37
2022/03/26 10:57:02;;;;;;;17.95;10.55;;;;;;;25.32;17.39;100750.09;5050735;28;20021;-37
2022/03/26 10:59:29;;;;;;;14.55;9.63;;;;;;;25.76;16.32;100751.28;5051639;28;20108;-37
2022/03/26 11:01:56;;;;;;;16.52;10.80;;;;;;;25.74;15.84;100751.53;5051755;28;20009;-37
2022/03/26 11:04:22;;;;;;;17.15;10.20;;;;;;;25.42;16.33;100751.97;5052500;28;20025;-38
2022/03/26 11:06:48;;;;;;;13.68;9.63;;;;;;;25.80;16.23;100746.03;5052002;28;20136;-38
2022/03/26 11:09:17;;;;;;;12.75;8.68;;;;;;;24.60;16.02;100743.94;5052152;28;20035;-37
2022/03/26 11:11:47;;;;;;;15.98;8.52;;;;;;;25.10;15.88;100739.50;5052136;28;20025;-37
2022/03/26 11:14:24;;;;;;;13.45;8.63;;;;;;;25.11;15.61;100724.81;5052321;28;20079;-37